Time;durP1;ratioP1;P1;durP2;ratioP2;P2;SDS_P1;SDS_P2;PMS_P1;PMS_P2;Temp;Humidity;BMP_temperature;BMP_pressure;BME280_temperature;BME280_humidity;BME280_pressure;Samples;Min_cycle;Max_cycle;Signal;HPM_P1;HPM_P2
2022/09/10 00:01:04;;;;;;;2.63;2.33;;;;;;;;;;6249096;22;20361;-92
2022/09/10 00:03:43;;;;;;;;;;;;;;;;;;;;;
2022/09/10 00:06:10;;;;;;;1.98;1.88;;;;;;;;;;6285480;22;20700;-91
2022/09/10 00:08:39;;;;;;;1.80;1.70;;;;;;;;;;6257190;22;20460;-92
2022/09/10 00:11:10;;;;;;;3.47;2.03;;;;;;;;;;6247818;22;20360;-93
2022/09/10 00:13:39;;;;;;;1.80;1.70;;;;;;;;;;6244739;22;20368;-91
2022/09/10 00:16:08;;;;;;;2.20;1.70;;;;;;;;;;6246501;22;20352;-92
2022/09/10 00:18:56;;;;;;;1.98;1.88;;;;;;;;;;6247374;22;20430;-91
2022/09/10 00:21:22;;;;;;;2.22;2.03;;;;;;;;;;6243960;22;20372;-91
2022/09/10 00:23:48;;;;;;;1.52;1.42;;;;;;;;;;6276912;22;20411;-92
2022/09/10 00:26:25;;;;;;;1.80;1.80;;;;;;;;;;6247951;22;20449;-91
2022/09/10 00:28:53;;;;;;;2.00;1.90;;;;;;;;;;6244622;22;20360;-90
2022/09/10 00:31:20;;;;;;;2.00;1.90;;;;;;;;;;6245075;22;20373;-91
2022/09/10 00:33:46;;;;;;;2.30;1.70;;;;;;;;;;6272881;22;20360;-91
2022/09/10 00:36:21;;;;;;;4.47;1.90;;;;;;;;;;6246391;22;20851;-90
2022/09/10 00:38:50;;;;;;;2.33;2.13;;;;;;;;;;6245882;22;20356;-92
2022/09/10 00:41:17;;;;;;;1.80;1.70;;;;;;;;;;6248800;22;20352;-91
2022/09/10 00:43:47;;;;;;;2.20;1.60;;;;;;;;;;6249218;22;20389;-91
2022/09/10 00:46:17;;;;;;;2.85;2.05;;;;;;;;;;6248886;22;20467;-92
2022/09/10 00:48:49;;;;;;;2.30;1.67;;;;;;;;;;6255064;22;20370;-91
2022/09/10 00:51:18;;;;;;;1.77;1.67;;;;;;;;;;6263348;22;20370;-93
2022/09/10 00:54:02;;;;;;;3.65;1.70;;;;;;;;;;6289922;22;20436;-91
2022/09/10 00:56:28;;;;;;;1.83;1.77;;;;;;;;;;6264456;22;20383;-91
2022/09/10 00:58:55;;;;;;;1.70;1.60;;;;;;;;;;6284269;22;20494;-91
2022/09/10 01:01:22;;;;;;;1.70;1.60;;;;;;;;;;6248548;22;20356;-91
2022/09/10 01:06:32;;;;;;;1.60;1.50;;;;;;;;;;6254463;23;20485;-92
2022/09/10 01:09:18;;;;;;;1.70;1.60;;;;;;;;;;6245510;23;20448;-92
2022/09/10 01:12:03;;;;;;;1.90;1.80;;;;;;;;;;6229395;23;20372;-91
2022/09/10 01:14:36;;;;;;;1.40;1.30;;;;;;;;;;6227827;23;20382;-92
2022/09/10 01:17:24;;;;;;;1.83;1.20;;;;;;;;;;6230415;23;20369;-91
2022/09/10 01:20:23;;;;;;;2.25;1.30;;;;;;;;;;6218900;23;20366;-91
2022/09/10 01:23:10;;;;;;;1.80;1.70;;;;;;;;;;6216312;23;20449;-91
2022/09/10 01:25:55;;;;;;;1.58;1.48;;;;;;;;;;6215112;23;20370;-92
2022/09/10 01:28:49;;;;;;;1.40;1.30;;;;;;;;;;6240429;23;20338;-91
2022/09/10 01:31:23;;;;;;;2.23;1.57;;;;;;;;;;6090026;23;20370;-92
2022/09/10 01:33:53;;;;;;;1.50;1.30;;;;;;;;;;6212104;23;20440;-91
2022/09/10 01:36:40;;;;;;;3.80;1.63;;;;;;;;;;6215689;23;20362;-91
2022/09/10 01:39:10;;;;;;;2.55;1.50;;;;;;;;;;6214330;23;20394;-91
2022/09/10 01:41:53;;;;;;;1.67;1.60;;;;;;;;;;6240809;23;20686;-91
2022/09/10 01:44:43;;;;;;;1.60;1.50;;;;;;;;;;6212742;23;20376;-92
2022/09/10 01:47:29;;;;;;;1.70;1.60;;;;;;;;;;6215341;23;20416;-91
2022/09/10 01:50:13;;;;;;;1.70;1.60;;;;;;;;;;6181352;23;20359;-92
2022/09/10 01:52:57;;;;;;;2.00;1.80;;;;;;;;;;6184939;23;20383;-92
2022/09/10 01:55:23;;;;;;;2.22;1.70;;;;;;;;;;6185994;23;20696;-92
2022/09/10 01:57:55;;;;;;;1.50;1.50;;;;;;;;;;6183059;23;20442;-91
2022/09/10 02:00:25;;;;;;;2.60;2.08;;;;;;;;;;6183496;23;20927;-89
2022/09/10 02:03:17;;;;;;;2.65;1.90;;;;;;;;;;6181811;23;20356;-92
2022/09/10 02:08:55;;;;;;;1.90;1.80;;;;;;;;;;6191373;23;20347;-92
2022/09/10 02:11:22;;;;;;;2.28;2.10;;;;;;;;;;6186665;23;20358;-91
2022/09/10 02:13:55;;;;;;;2.20;2.03;;;;;;;;;;6184777;23;20395;-92
2022/09/10 02:16:29;;;;;;;2.20;1.90;;;;;;;;;;6186007;23;20355;-92
2022/09/10 02:18:56;;;;;;;2.08;1.80;;;;;;;;;;6184224;23;20438;-93
2022/09/10 02:21:25;;;;;;;2.10;2.00;;;;;;;;;;6184722;23;20356;-93
2022/09/10 02:27:13;;;;;;;1.80;1.73;;;;;;;;;;6202110;23;20367;-92
2022/09/10 02:29:40;;;;;;;1.83;1.80;;;;;;;;;;6192170;23;20463;-93
2022/09/10 02:32:10;;;;;;;1.80;1.80;;;;;;;;;;6192874;23;20368;-92
2022/09/10 02:34:36;;;;;;;2.10;2.00;;;;;;;;;;6192212;23;20386;-92
2022/09/10 02:37:03;;;;;;;2.30;2.20;;;;;;;;;;6194637;23;20363;-93
2022/09/10 02:39:32;;;;;;;2.70;2.20;;;;;;;;;;6195126;23;20846;-93
2022/09/10 02:41:58;;;;;;;2.53;2.42;;;;;;;;;;6197551;23;20420;-90
2022/09/10 02:44:26;;;;;;;2.70;2.20;;;;;;;;;;6194271;23;20682;-93
2022/09/10 02:46:55;;;;;;;2.60;2.00;;;;;;;;;;6197959;23;20381;-92
2022/09/10 02:49:21;;;;;;;4.50;1.90;;;;;;;;;;6198155;23;20410;-93
2022/09/10 02:51:50;;;;;;;2.90;2.03;;;;;;;;;;6204830;23;20352;-93
2022/09/10 02:54:19;;;;;;;3.30;2.00;;;;;;;;;;6201363;23;20382;-94
2022/09/10 02:56:48;;;;;;;2.20;2.10;;;;;;;;;;6195727;23;20355;-92
2022/09/10 02:59:18;;;;;;;1.90;1.90;;;;;;;;;;6193599;23;20358;-93
2022/09/10 03:01:52;;;;;;;2.85;2.00;;;;;;;;;;6192208;23;20410;-91
2022/09/10 03:07:19;;;;;;;2.20;2.10;;;;;;;;;;6204187;23;20400;-92
2022/09/10 03:09:45;;;;;;;2.40;2.30;;;;;;;;;;6207456;23;20371;-92
2022/09/10 03:12:20;;;;;;;2.60;2.40;;;;;;;;;;6235311;23;20360;-92
2022/09/10 03:14:47;;;;;;;2.33;2.22;;;;;;;;;;6208409;23;20360;-92
2022/09/10 03:17:13;;;;;;;3.00;2.20;;;;;;;;;;6210682;23;20383;-91
2022/09/10 03:19:40;;;;;;;2.60;2.00;;;;;;;;;;6206886;23;20391;-91
2022/09/10 03:22:13;;;;;;;2.33;2.15;;;;;;;;;;6236072;23;20355;-92
2022/09/10 03:24:39;;;;;;;2.50;2.30;;;;;;;;;;6205746;23;20360;-92
2022/09/10 03:27:08;;;;;;;2.83;2.63;;;;;;;;;;6208674;23;20367;-93
2022/09/10 03:29:35;;;;;;;2.87;2.67;;;;;;;;;;6201169;23;20371;-91
2022/09/10 03:32:01;;;;;;;3.38;2.92;;;;;;;;;;6186991;23;20409;-88
2022/09/10 03:37:24;;;;;;;5.80;2.90;;;;;;;;;;6239255;23;20379;-92
2022/09/10 03:39:56;;;;;;;3.35;3.15;;;;;;;;;;6212149;23;20604;-92
2022/09/10 03:42:49;;;;;;;3.67;3.37;;;;;;;;;;6203134;23;20467;-93
2022/09/10 03:45:53;;;;;;;3.50;3.30;;;;;;;;;;6206650;23;20394;-93
2022/09/10 03:48:20;;;;;;;4.70;4.30;;;;;;;;;;6173809;23;20418;-93
2022/09/10 03:50:47;;;;;;;4.53;4.13;;;;;;;;;;6208371;23;20394;-92
2022/09/10 03:53:22;;;;;;;4.97;4.57;;;;;;;;;;6236498;23;20384;-93
2022/09/10 03:56:18;;;;;;;4.40;4.10;;;;;;;;;;6208674;23;20387;-93
2022/09/10 03:58:56;;;;;;;5.20;4.78;;;;;;;;;;6208190;23;20363;-93
2022/09/10 04:01:23;;;;;;;4.93;4.63;;;;;;;;;;6187961;23;20391;-91
2022/09/10 04:03:54;;;;;;;5.22;4.82;;;;;;;;;;6190141;23;20347;-92
2022/09/10 04:06:23;;;;;;;5.82;4.72;;;;;;;;;;6192973;23;20379;-93
2022/09/10 04:09:00;;;;;;;4.97;4.43;;;;;;;;;;6219808;23;20344;-94
2022/09/10 04:11:26;;;;;;;4.80;4.50;;;;;;;;;;6193100;23;20356;-94
2022/09/10 04:14:06;;;;;;;3.90;3.80;;;;;;;;;;6191566;23;20871;-94
2022/09/10 04:16:32;;;;;;;4.57;4.28;;;;;;;;;;6188957;23;20369;-95
2022/09/10 04:18:58;;;;;;;4.00;3.70;;;;;;;;;;6192084;23;20368;-88
2022/09/10 04:21:35;;;;;;;4.70;4.40;;;;;;;;;;6188923;23;20862;-94
2022/09/10 04:24:27;;;;;;;4.18;3.97;;;;;;;;;;6196323;23;20356;-95
2022/09/10 04:27:00;;;;;;;5.00;4.30;;;;;;;;;;6193517;23;20485;-94
2022/09/10 04:29:45;;;;;;;4.65;4.25;;;;;;;;;;6161883;22;20475;-94
2022/09/10 04:32:15;;;;;;;5.20;4.70;;;;;;;;;;6192981;23;20403;-94
2022/09/10 04:34:44;;;;;;;5.15;4.30;;;;;;;;;;6189861;23;20373;-94
2022/09/10 04:37:11;;;;;;;4.70;4.20;;;;;;;;;;6187577;23;20397;-94
2022/09/10 04:39:37;;;;;;;5.00;4.80;;;;;;;;;;6183076;23;20864;-92
2022/09/10 04:42:32;;;;;;;5.10;4.80;;;;;;;;;;6187550;23;20353;-93
2022/09/10 04:45:31;;;;;;;;;;;;;;;;;;;;;
2022/09/10 04:55:51;;;;;;;5.82;5.20;;;;;;;;;;6180836;23;20397;-93
2022/09/10 04:59:01;;;;;;;6.65;5.60;;;;;;;;;;6159053;23;20362;-94
2022/09/10 05:02:08;;;;;;;8.90;6.50;;;;;;;;;;6036856;23;20433;-94
2022/09/10 05:05:02;;;;;;;7.80;6.95;;;;;;;;;;6016437;23;20609;-94
2022/09/10 05:38:03;;;;;;;8.10;7.40;;;;;;;;;;6180450;23;20404;-94
2022/09/10 05:40:37;;;;;;;8.75;7.85;;;;;;;;;;6156400;23;20434;-94
2022/09/10 05:43:04;;;;;;;7.75;7.15;;;;;;;;;;6159367;23;20369;-94
2022/09/10 05:45:33;;;;;;;8.10;7.32;;;;;;;;;;6156460;23;20370;-93
2022/09/10 05:48:34;;;;;;;7.95;6.90;;;;;;;;;;6182545;23;20879;-92
2022/09/10 05:51:33;;;;;;;7.20;6.50;;;;;;;;;;6035529;23;20378;-93
2022/09/10 05:54:34;;;;;;;8.95;7.35;;;;;;;;;;6027917;23;20385;-93
2022/09/10 06:00:46;;;;;;;;;;;;;;;;;;;;;
2022/09/10 06:03:33;;;;;;;7.18;6.53;;;;;;;;;;6213659;23;20391;-94
2022/09/10 06:11:33;;;;;;;7.53;6.93;;;;;;;;;;6247256;22;20925;-91
2022/09/10 06:14:08;;;;;;;9.77;7.30;;;;;;;;;;6222136;23;20410;-93
2022/09/10 06:17:23;;;;;;;;;;;;;;;;;;;;;
2022/09/10 06:20:22;;;;;;;7.30;6.68;;;;;;;;;;6100760;23;20408;-93
2022/09/10 06:22:50;;;;;;;7.15;6.65;;;;;;;;;;6169695;23;20354;-91
2022/09/10 06:25:26;;;;;;;8.38;7.65;;;;;;;;;;6214269;23;20750;-95
2022/09/10 06:30:58;;;;;;;8.02;6.50;;;;;;;;;;6250033;23;20358;-94
2022/09/10 06:33:34;;;;;;;7.57;6.68;;;;;;;;;;6223399;23;20381;-94
2022/09/10 06:36:22;;;;;;;7.63;6.80;;;;;;;;;;6224388;23;20377;-92
2022/09/10 06:39:09;;;;;;;9.85;7.35;;;;;;;;;;6250633;23;20579;-94
2022/09/10 06:45:15;;;;;;;9.23;6.22;;;;;;;;;;6251874;23;20361;-94
2022/09/10 06:50:33;;;;;;;9.00;6.43;;;;;;;;;;6208487;22;20799;-94
2022/09/10 06:53:22;;;;;;;6.30;5.80;;;;;;;;;;6219710;23;20391;-93
2022/09/10 06:55:52;;;;;;;6.15;5.65;;;;;;;;;;6216697;23;20463;-95
2022/09/10 07:01:59;;;;;;;5.63;5.13;;;;;;;;;;6205229;23;20382;-92
2022/09/10 07:07:34;;;;;;;6.10;5.60;;;;;;;;;;6192797;22;20478;-93
2022/09/10 07:19:00;;;;;;;8.75;6.18;;;;;;;;;;6227802;22;20406;-93
2022/09/10 07:21:29;;;;;;;5.32;4.93;;;;;;;;;;6219110;23;20416;-93
2022/09/10 08:08:46;;;;;;;5.80;5.50;;;;;;;;;;6247797;22;21185;-91
2022/09/10 08:14:06;;;;;;;6.93;6.40;;;;;;;;;;6233628;22;20409;-90
2022/09/10 08:16:47;;;;;;;6.30;5.80;;;;;;;;;;6266811;22;20352;-89
2022/09/10 08:22:27;;;;;;;;;;;;;;;;;;;;;
2022/09/10 08:43:51;;;;;;;6.82;6.05;;;;;;;;;;6235745;22;20424;-92
2022/09/10 08:46:25;;;;;;;7.10;6.50;;;;;;;;;;6260333;23;20377;-94
2022/09/10 08:49:05;;;;;;;5.50;5.20;;;;;;;;;;6233749;23;20406;-92
2022/09/10 08:57:04;;;;;;;5.20;5.00;;;;;;;;;;6258765;22;20397;-93
2022/09/10 08:59:45;;;;;;;;;;;;;;;;;;;;;
2022/09/10 09:02:12;;;;;;;6.07;5.57;;;;;;;;;;6255140;23;20373;-92
2022/09/10 09:08:32;;;;;;;5.55;5.15;;;;;;;;;;6227867;23;20358;-91
2022/09/10 09:11:13;;;;;;;6.40;5.90;;;;;;;;;;6253630;22;20361;-90
2022/09/10 09:16:23;;;;;;;5.03;4.73;;;;;;;;;;6256216;22;20365;-91
2022/09/10 09:19:21;;;;;;;5.20;4.80;;;;;;;;;;6213138;22;20394;-92
2022/09/10 09:21:51;;;;;;;5.18;4.82;;;;;;;;;;6203606;23;20377;-93
2022/09/10 09:27:26;;;;;;;5.70;5.20;;;;;;;;;;6262152;22;20538;-92
2022/09/10 09:29:58;;;;;;;6.47;6.00;;;;;;;;;;6260858;22;20361;-90
2022/09/10 09:35:37;;;;;;;7.50;6.80;;;;;;;;;;6225045;23;20385;-94
2022/09/10 09:38:06;;;;;;;7.97;7.40;;;;;;;;;;6224954;23;20365;-93
2022/09/10 09:40:57;;;;;;;9.35;8.35;;;;;;;;;;6222156;23;20362;-94
2022/09/10 09:43:53;;;;;;;8.70;8.10;;;;;;;;;;6237633;23;20354;-94
2022/09/10 09:46:55;;;;;;;9.88;8.90;;;;;;;;;;6238138;23;20440;-91
2022/09/10 09:49:31;;;;;;;10.00;9.00;;;;;;;;;;6192289;23;20807;-91
2022/09/10 09:52:02;;;;;;;10.20;8.98;;;;;;;;;;6236723;23;20370;-91
2022/09/10 09:54:30;;;;;;;9.45;8.52;;;;;;;;;;6232724;23;20384;-90
2022/09/10 09:56:57;;;;;;;7.97;7.30;;;;;;;;;;6227393;23;20354;-90
2022/09/10 09:59:34;;;;;;;8.60;7.80;;;;;;;;;;6257330;23;20346;-92
2022/09/10 10:02:14;;;;;;;9.75;8.73;;;;;;;;;;6230638;23;20690;-92
2022/09/10 10:04:53;;;;;;;9.20;8.30;;;;;;;;;;6205082;23;20408;-93
2022/09/10 10:07:24;;;;;;;9.90;9.10;;;;;;;;;;6206201;23;20396;-93
2022/09/10 10:15:35;;;;;;;9.88;9.20;;;;;;;;;;6265069;22;20390;-94
2022/09/10 10:18:20;;;;;;;9.70;9.10;;;;;;;;;;6238616;23;20453;-91
2022/09/10 10:20:49;;;;;;;12.32;11.32;;;;;;;;;;6234345;23;20358;-90
2022/09/10 10:23:35;;;;;;;12.85;11.95;;;;;;;;;;6235793;23;20369;-91
2022/09/10 10:26:16;;;;;;;13.60;12.30;;;;;;;;;;6226555;23;20362;-91
2022/09/10 10:28:57;;;;;;;14.32;13.23;;;;;;;;;;6223095;23;20415;-92
2022/09/10 10:31:24;;;;;;;14.02;12.80;;;;;;;;;;6224313;23;20856;-92
2022/09/10 10:34:04;;;;;;;16.77;15.38;;;;;;;;;;6229837;23;20378;-92
2022/09/10 10:36:52;;;;;;;18.57;16.87;;;;;;;;;;6258571;23;20350;-92
2022/09/10 10:50:51;;;;;;;16.90;15.40;;;;;;;;;;6258561;22;20469;-90
2022/09/10 11:04:49;;;;;;;16.73;15.23;;;;;;;;;;6256860;23;20757;-89
2022/09/10 11:10:26;;;;;;;17.92;16.25;;;;;;;;;;6220934;23;20379;-92
2022/09/10 11:21:38;;;;;;;13.80;12.60;;;;;;;;;;6258861;22;20464;-89
2022/09/10 11:24:10;;;;;;;14.90;13.65;;;;;;;;;;6241506;22;20404;-94
2022/09/10 11:26:45;;;;;;;15.75;14.55;;;;;;;;;;6270545;22;20446;-90
2022/09/10 11:29:14;;;;;;;12.73;11.82;;;;;;;;;;6270261;22;20382;-94
2022/09/10 11:31:46;;;;;;;13.90;12.65;;;;;;;;;;6269750;22;20356;-94
2022/09/10 11:34:17;;;;;;;9.85;9.05;;;;;;;;;;6265890;22;20471;-92
2022/09/10 11:36:56;;;;;;;9.63;8.88;;;;;;;;;;6259423;22;20359;-92
2022/09/10 11:39:33;;;;;;;12.47;11.43;;;;;;;;;;6272309;22;20349;-91
2022/09/10 11:42:12;;;;;;;11.63;10.73;;;;;;;;;;6273207;22;20730;-94
2022/09/10 11:44:52;;;;;;;13.20;12.10;;;;;;;;;;6270634;22;20357;-93
2022/09/10 11:47:21;;;;;;;12.98;11.75;;;;;;;;;;6266610;22;20384;-94
2022/09/10 11:49:50;;;;;;;13.70;12.65;;;;;;;;;;6259412;22;20360;-92
2022/09/10 11:52:17;;;;;;;12.55;11.65;;;;;;;;;;6258487;22;20364;-92
2022/09/10 11:54:45;;;;;;;11.93;11.10;;;;;;;;;;6258452;22;20388;-92
2022/09/10 11:57:11;;;;;;;14.23;12.93;;;;;;;;;;6256531;22;20425;-92
2022/09/10 11:59:56;;;;;;;12.88;11.88;;;;;;;;;;6282929;22;20883;-94
2022/09/10 12:02:44;;;;;;;14.10;12.90;;;;;;;;;;6260512;22;20349;-93
2022/09/10 12:05:24;;;;;;;14.23;13.15;;;;;;;;;;6254532;22;21014;-95
2022/09/10 12:08:29;;;;;;;12.65;11.65;;;;;;;;;;6260122;22;20401;-95
2022/09/10 12:21:54;;;;;;;15.23;13.98;;;;;;;;;;6230963;22;20417;-91
2022/09/10 12:47:16;;;;;;;15.53;14.33;;;;;;;;;;6253923;23;20401;-91
2022/09/10 12:49:56;;;;;;;18.80;17.10;;;;;;;;;;6224474;23;20465;-90
2022/09/10 12:52:41;;;;;;;14.82;13.60;;;;;;;;;;6256674;23;20350;-92
2022/09/10 12:58:30;;;;;;;15.70;14.40;;;;;;;;;;6145428;23;20361;-95
2022/09/10 13:00:57;;;;;;;15.85;14.55;;;;;;;;;;6213744;23;20453;-91
2022/09/10 13:03:27;;;;;;;15.02;13.85;;;;;;;;;;6246630;23;20373;-91
2022/09/10 13:08:40;;;;;;;17.10;15.70;;;;;;;;;;6245774;23;20464;-90
2022/09/10 13:11:24;;;;;;;18.48;16.88;;;;;;;;;;6222448;23;20437;-90
2022/09/10 13:14:03;;;;;;;17.80;16.23;;;;;;;;;;6223230;23;20394;-91
2022/09/10 13:16:29;;;;;;;20.45;18.45;;;;;;;;;;6213864;23;20377;-92
2022/09/10 13:19:16;;;;;;;17.20;15.90;;;;;;;;;;6216354;23;20378;-91
2022/09/10 13:21:42;;;;;;;16.70;15.20;;;;;;;;;;6241151;23;20369;-91
2022/09/10 13:24:30;;;;;;;17.30;15.80;;;;;;;;;;6217140;23;21046;-91
2022/09/10 13:27:15;;;;;;;16.80;15.40;;;;;;;;;;6243825;23;20396;-93
2022/09/10 13:29:47;;;;;;;17.13;15.75;;;;;;;;;;6216543;23;20354;-90
2022/09/10 13:32:18;;;;;;;16.70;15.20;;;;;;;;;;6214268;23;20358;-91
2022/09/10 13:35:00;;;;;;;16.42;15.13;;;;;;;;;;6217799;23;20421;-89
2022/09/10 13:37:35;;;;;;;16.48;15.07;;;;;;;;;;6217240;23;20412;-90
2022/09/10 13:40:20;;;;;;;15.93;14.70;;;;;;;;;;6243876;23;20357;-88
2022/09/10 13:43:05;;;;;;;18.77;17.27;;;;;;;;;;6217527;23;20346;-90
2022/09/10 13:45:59;;;;;;;19.85;18.05;;;;;;;;;;6238699;23;20386;-88
2022/09/10 13:48:30;;;;;;;21.20;19.08;;;;;;;;;;6209294;23;20362;-91
2022/09/10 13:51:08;;;;;;;21.45;19.35;;;;;;;;;;6241129;23;20374;-91
2022/09/10 13:53:35;;;;;;;19.23;17.53;;;;;;;;;;6240249;23;20418;-87
2022/09/10 13:56:08;;;;;;;21.55;19.25;;;;;;;;;;6211085;23;20384;-89
2022/09/10 13:58:44;;;;;;;21.92;19.83;;;;;;;;;;6214602;23;20342;-89
2022/09/10 14:01:18;;;;;;;20.15;18.45;;;;;;;;;;6206496;23;20459;-89
2022/09/10 14:03:44;;;;;;;18.00;16.50;;;;;;;;;;6214917;23;20362;-89
2022/09/10 14:06:24;;;;;;;20.77;18.98;;;;;;;;;;6214233;23;20370;-91
2022/09/10 14:09:25;;;;;;;16.63;15.23;;;;;;;;;;6213704;23;20465;-91
2022/09/10 14:11:54;;;;;;;18.95;17.25;;;;;;;;;;6191060;23;20441;-90
2022/09/10 14:14:26;;;;;;;19.25;17.75;;;;;;;;;;6242422;23;20500;-87
2022/09/10 14:17:02;;;;;;;21.23;19.42;;;;;;;;;;6237701;23;20783;-89
2022/09/10 14:22:08;;;;;;;19.23;17.70;;;;;;;;;;6229567;22;20932;-89
2022/09/10 14:24:39;;;;;;;17.98;16.58;;;;;;;;;;6239178;23;20835;-89
2022/09/10 14:27:27;;;;;;;20.13;18.42;;;;;;;;;;6211598;23;20374;-88
2022/09/10 14:30:29;;;;;;;;;;;;;;;;;;;;;
2022/09/10 14:33:24;;;;;;;19.25;17.45;;;;;;;;;;6240149;23;20469;-89
2022/09/10 14:39:05;;;;;;;21.60;19.70;;;;;;;;;;6225932;23;20429;-88
2022/09/10 14:41:54;;;;;;;22.92;21.02;;;;;;;;;;6168458;23;20393;-90
2022/09/10 14:44:26;;;;;;;24.58;22.58;;;;;;;;;;6197208;23;20369;-89
2022/09/10 14:46:56;;;;;;;22.88;21.08;;;;;;;;;;6211906;23;20397;-91
2022/09/10 14:49:30;;;;;;;21.70;19.90;;;;;;;;;;6243469;23;20821;-91
2022/09/10 14:51:57;;;;;;;22.10;20.00;;;;;;;;;;6212693;23;20449;-88
2022/09/10 14:54:25;;;;;;;22.58;20.48;;;;;;;;;;6213733;23;20781;-91
2022/09/10 14:56:59;;;;;;;23.65;21.65;;;;;;;;;;6212567;23;20740;-91
2022/09/10 14:59:34;;;;;;;22.05;20.17;;;;;;;;;;6213481;23;20357;-89
2022/09/10 15:02:11;;;;;;;22.30;20.43;;;;;;;;;;6207812;23;20398;-89
2022/09/10 15:04:42;;;;;;;23.63;21.45;;;;;;;;;;6238807;23;20648;-89
2022/09/10 15:07:09;;;;;;;22.00;20.30;;;;;;;;;;6210934;23;20394;-90
2022/09/10 15:09:36;;;;;;;23.88;21.73;;;;;;;;;;6211914;23;20373;-90
2022/09/10 15:12:39;;;;;;;22.70;20.80;;;;;;;;;;6225964;22;20477;-93
2022/09/10 16:00:22;;;;;;;22.90;20.60;;;;;;;;;;6225818;22;20536;-92
2022/09/10 16:02:50;;;;;;;19.80;18.20;;;;;;;;;;6246899;23;20374;-91
2022/09/10 16:05:52;;;;;;;;;;;;;;;;;;;;;
2022/09/10 16:08:33;;;;;;;18.57;17.13;;;;;;;;;;6223961;22;20979;-90
2022/09/10 16:16:11;;;;;;;17.83;16.42;;;;;;;;;;6201593;22;20400;-92
2022/09/10 16:18:40;;;;;;;20.42;18.90;;;;;;;;;;6184147;22;20631;-94
2022/09/10 16:24:27;;;;;;;20.67;18.97;;;;;;;;;;6214188;22;20462;-90
2022/09/10 16:26:53;;;;;;;18.70;17.40;;;;;;;;;;6215963;23;20397;-92
2022/09/10 16:29:19;;;;;;;17.60;16.30;;;;;;;;;;6217921;23;20485;-86
2022/09/10 16:31:47;;;;;;;19.35;17.85;;;;;;;;;;6211356;23;20436;-92
2022/09/10 16:34:17;;;;;;;18.90;17.50;;;;;;;;;;6217112;23;20432;-94
2022/09/10 16:36:43;;;;;;;18.83;17.37;;;;;;;;;;6212512;23;20473;-91
2022/09/10 16:39:11;;;;;;;18.03;16.63;;;;;;;;;;6216821;23;20404;-91
2022/09/10 16:41:41;;;;;;;15.57;14.38;;;;;;;;;;6214741;23;20374;-90
2022/09/10 16:44:07;;;;;;;16.50;15.40;;;;;;;;;;6215550;23;20420;-90
2022/09/10 16:46:34;;;;;;;18.02;16.52;;;;;;;;;;6219031;23;20397;-92
2022/09/10 16:49:00;;;;;;;18.13;16.83;;;;;;;;;;6218048;23;20398;-88
2022/09/10 16:59:16;;;;;;;18.23;16.73;;;;;;;;;;6189050;22;20381;-91
2022/09/10 17:02:11;;;;;;;16.95;15.65;;;;;;;;;;6248221;23;20447;-93
2022/09/10 17:07:19;;;;;;;14.40;13.40;;;;;;;;;;6247726;22;20436;-91
2022/09/10 17:15:32;;;;;;;13.77;12.77;;;;;;;;;;6239146;22;20395;-94
2022/09/10 17:21:05;;;;;;;15.48;14.27;;;;;;;;;;6184972;23;20388;-94
2022/09/10 17:29:39;;;;;;;12.68;11.77;;;;;;;;;;6226158;22;20401;-93
2022/09/10 17:32:18;;;;;;;;;;;;;;;;;;;;;
2022/09/10 17:34:50;;;;;;;13.52;12.40;;;;;;;;;;6225918;23;20444;-93
2022/09/10 17:37:23;;;;;;;13.07;12.18;;;;;;;;;;6227336;23;20380;-94
2022/09/10 17:45:29;;;;;;;15.10;13.90;;;;;;;;;;6245496;22;20389;-96
2022/09/10 17:48:01;;;;;;;13.60;12.70;;;;;;;;;;6219566;23;20430;-96
2022/09/10 17:50:29;;;;;;;14.18;13.18;;;;;;;;;;6221056;23;20878;-95
2022/09/10 17:52:56;;;;;;;13.18;12.27;;;;;;;;;;6221295;23;20384;-96
2022/09/10 17:55:37;;;;;;;;;;;;;;;;;;;;;
2022/09/10 17:58:03;;;;;;;15.98;14.77;;;;;;;;;;6248302;23;20385;-95
2022/09/10 18:00:29;;;;;;;14.63;13.52;;;;;;;;;;6218426;23;20358;-95
2022/09/10 18:02:55;;;;;;;14.90;13.80;;;;;;;;;;6211231;23;20362;-95
2022/09/10 18:05:25;;;;;;;14.55;13.45;;;;;;;;;;6217630;23;20361;-94
2022/09/10 18:08:00;;;;;;;14.90;13.80;;;;;;;;;;6216826;23;20382;-94
2022/09/10 18:10:29;;;;;;;15.38;13.98;;;;;;;;;;6217340;23;20357;-94
2022/09/10 18:13:09;;;;;;;15.68;14.45;;;;;;;;;;6217324;23;20374;-93
2022/09/10 18:15:45;;;;;;;16.15;14.80;;;;;;;;;;6218106;23;20350;-93
2022/09/10 18:18:16;;;;;;;15.00;13.70;;;;;;;;;;6218718;23;20761;-95
2022/09/10 18:20:42;;;;;;;16.00;14.80;;;;;;;;;;6218325;23;20426;-94
2022/09/10 18:23:08;;;;;;;16.37;15.07;;;;;;;;;;6217323;23;20404;-87
2022/09/10 18:25:34;;;;;;;16.60;15.38;;;;;;;;;;6218742;23;20385;-94
2022/09/10 18:28:01;;;;;;;16.20;14.80;;;;;;;;;;6217556;23;20541;-95
2022/09/10 18:30:28;;;;;;;17.13;15.85;;;;;;;;;;6220890;23;20365;-95
2022/09/10 18:33:02;;;;;;;16.70;15.32;;;;;;;;;;6224620;23;20382;-95
2022/09/10 18:35:41;;;;;;;17.30;15.80;;;;;;;;;;6218796;23;20426;-94
2022/09/10 18:38:23;;;;;;;18.80;17.15;;;;;;;;;;6216590;23;20356;-93
2022/09/10 18:47:44;;;;;;;20.73;18.93;;;;;;;;;;6242342;23;20667;-93
2022/09/10 18:50:25;;;;;;;22.70;20.50;;;;;;;;;;6225629;23;20359;-94
2022/09/10 18:56:13;;;;;;;21.40;19.40;;;;;;;;;;6255951;23;20358;-94
2022/09/10 19:01:22;;;;;;;19.15;17.45;;;;;;;;;;6207910;22;20811;-90
2022/09/10 19:07:12;;;;;;;23.02;20.83;;;;;;;;;;6213825;22;20418;-94
2022/09/10 19:10:05;;;;;;;21.50;19.50;;;;;;;;;;6233428;23;20366;-94
2022/09/10 19:12:39;;;;;;;22.35;20.25;;;;;;;;;;6219473;23;20372;-95
2022/09/10 19:15:13;;;;;;;21.10;19.20;;;;;;;;;;6219834;23;20479;-94
2022/09/10 19:17:45;;;;;;;22.10;19.92;;;;;;;;;;6219001;23;20421;-94
2022/09/10 19:20:20;;;;;;;23.25;21.05;;;;;;;;;;6216451;23;20376;-93
2022/09/10 19:22:49;;;;;;;23.17;20.90;;;;;;;;;;6215967;23;20385;-91
2022/09/10 19:25:42;;;;;;;;;;;;;;;;;;;;;
2022/09/10 19:28:22;;;;;;;23.40;21.10;;;;;;;;;;6246781;23;20433;-91
2022/09/10 19:31:00;;;;;;;22.27;20.08;;;;;;;;;;6236227;23;20330;-93
2022/09/10 19:33:50;;;;;;;24.30;21.90;;;;;;;;;;6238123;23;20465;-93
2022/09/10 19:36:32;;;;;;;22.40;20.30;;;;;;;;;;6235902;23;20401;-91
2022/09/10 19:39:11;;;;;;;22.20;20.10;;;;;;;;;;6228058;23;20369;-92
2022/09/10 19:41:50;;;;;;;22.23;20.02;;;;;;;;;;6230828;23;20411;-91
2022/09/10 19:44:33;;;;;;;;;;;;;;;;;;;;;
2022/09/10 19:50:48;;;;;;;26.73;23.98;;;;;;;;;;6217742;23;20373;-94
2022/09/10 19:53:40;;;;;;;;;;;;;;;;;;;;;
2022/09/10 19:59:52;;;;;;;24.30;21.80;;;;;;;;;;6231523;23;20346;-92
2022/09/10 20:05:54;;;;;;;27.52;24.83;;;;;;;;;;6246960;23;20380;-93
2022/09/10 20:08:52;;;;;;;24.77;22.38;;;;;;;;;;6219008;23;20374;-94
2022/09/10 20:15:20;;;;;;;27.05;23.10;;;;;;;;;;6146878;23;20534;-89
2022/09/10 20:18:02;;;;;;;;;;;;;;;;;;;;;
2022/09/10 20:20:51;;;;;;;29.65;26.45;;;;;;;;;;6252119;23;20371;-91
2022/09/10 20:59:38;;;;;;;35.90;29.67;;;;;;;;;;6221363;22;20747;-89
2022/09/10 21:02:04;;;;;;;32.05;27.42;;;;;;;;;;6208287;23;20704;-89
2022/09/10 21:04:33;;;;;;;31.55;27.33;;;;;;;;;;6213859;23;20425;-90
2022/09/10 21:06:59;;;;;;;35.72;29.95;;;;;;;;;;6212162;23;20382;-90
2022/09/10 21:09:27;;;;;;;34.67;29.60;;;;;;;;;;6213969;23;20361;-89
2022/09/10 21:11:56;;;;;;;36.97;31.10;;;;;;;;;;6238205;23;20346;-89
2022/09/10 21:14:25;;;;;;;31.00;27.58;;;;;;;;;;6213235;23;20715;-89
2022/09/10 21:16:55;;;;;;;33.38;28.98;;;;;;;;;;6223498;23;20390;-95
2022/09/10 21:20:07;;;;;;;;;;;;;;;;;;;;;
2022/09/10 21:22:52;;;;;;;31.95;28.08;;;;;;;;;;6245393;23;20446;-94
2022/09/10 21:49:51;;;;;;;36.03;28.50;;;;;;;;;;6243123;22;20398;-93
2022/09/10 21:52:29;;;;;;;38.80;31.17;;;;;;;;;;6218645;23;20366;-94
2022/09/10 21:58:00;;;;;;;;;;;;;;;;;;;;;
2022/09/10 22:03:46;;;;;;;34.70;29.13;;;;;;;;;;6197415;23;20421;-94
2022/09/10 22:06:35;;;;;;;34.08;28.00;;;;;;;;;;6223053;23;20374;-94
2022/09/10 22:09:36;;;;;;;;;;;;;;;;;;;;;
2022/09/10 22:12:19;;;;;;;35.83;28.45;;;;;;;;;;6232944;23;20366;-91
2022/09/10 22:15:54;;;;;;;38.30;30.58;;;;;;;;;;6235407;23;20382;-95
2022/09/10 23:03:55;;;;;;;100.60;30.77;;;;;;;;;;6172845;22;20391;31
2022/09/10 23:56:54;;;;;;;50.42;30.85;;;;;;;;;;6227497;23;20399;-91
2022/09/10 23:59:51;;;;;;;71.32;27.63;;;;;;;;;;6234642;23;20353;-89
